Zalma, Missouri
Current Conditions -  °F | °C
As of 8:53 AM on Wednesday 22 Oct 2014 (Local Time) from KPOF Reporting Station
Clear Clear  
Wind Chill: 50°   Ceiling: Unl
Heat Index: 50°   Visibility: 9mi
Dew Point: 43°   Wind: 8mph
Humidity: 77%   Direction: 50°NE
Pressure: 30.29"   Gusts: NA
Location:  37.14°N, 90.08°W
Report Text: KPOF 221353Z AUTO 05007KT 9SM CLR 10/06 A3029 RMK AO2 SLP258 T01000061
Loading
Personal Weather Stations






























Interactive Weather Map
Tropical Storm Tracking
New forecast layout! Learn more

10-Day Weather Forecast

Advertisements
Track Severe Weather on mobile